sensor_id;sensor_type;location;lat;lon;timestamp;P1;durP1;ratioP1;P2;durP2;ratioP2
72920;SDS011;61064;51.654;5.476;2022-12-18T00:01:29;47.05;;;14.65;;
72920;SDS011;61064;51.654;5.476;2022-12-18T00:04:00;44.85;;;14.95;;
72920;SDS011;61064;51.654;5.476;2022-12-18T00:06:30;48.58;;;14.73;;
72920;SDS011;61064;51.654;5.476;2022-12-18T00:09:00;45.47;;;14.50;;
72920;SDS011;61064;51.654;5.476;2022-12-18T00:11:28;42.75;;;15.10;;
72920;SDS011;61064;51.654;5.476;2022-12-18T00:13:58;43.30;;;15.32;;
72920;SDS011;61064;51.654;5.476;2022-12-18T00:16:25;43.10;;;14.85;;
72920;SDS011;61064;51.654;5.476;2022-12-18T00:18:53;40.88;;;13.50;;
72920;SDS011;61064;51.654;5.476;2022-12-18T00:21:20;39.77;;;14.73;;
72920;SDS011;61064;51.654;5.476;2022-12-18T00:23:46;44.30;;;14.70;;
72920;SDS011;61064;51.654;5.476;2022-12-18T00:26:21;45.13;;;14.07;;
72920;SDS011;61064;51.654;5.476;2022-12-18T00:28:48;40.40;;;13.43;;
72920;SDS011;61064;51.654;5.476;2022-12-18T00:31:20;41.22;;;14.35;;
72920;SDS011;61064;51.654;5.476;2022-12-18T00:33:47;44.80;;;14.70;;
72920;SDS011;61064;51.654;5.476;2022-12-18T00:36:14;47.22;;;14.27;;
72920;SDS011;61064;51.654;5.476;2022-12-18T00:38:42;39.72;;;12.73;;
72920;SDS011;61064;51.654;5.476;2022-12-18T00:41:09;45.30;;;13.80;;
72920;SDS011;61064;51.654;5.476;2022-12-18T00:43:36;38.78;;;13.80;;
72920;SDS011;61064;51.654;5.476;2022-12-18T00:46:03;41.22;;;15.00;;
72920;SDS011;61064;51.654;5.476;2022-12-18T00:48:28;42.83;;;15.50;;
72920;SDS011;61064;51.654;5.476;2022-12-18T00:50:56;49.45;;;16.10;;
72920;SDS011;61064;51.654;5.476;2022-12-18T00:53:23;45.75;;;15.52;;
72920;SDS011;61064;51.654;5.476;2022-12-18T00:55:48;41.20;;;15.07;;
72920;SDS011;61064;51.654;5.476;2022-12-18T00:58:15;40.70;;;14.20;;
72920;SDS011;61064;51.654;5.476;2022-12-18T01:00:42;44.65;;;14.23;;
72920;SDS011;61064;51.654;5.476;2022-12-18T01:03:09;44.92;;;15.27;;
72920;SDS011;61064;51.654;5.476;2022-12-18T01:05:39;42.28;;;14.32;;
72920;SDS011;61064;51.654;5.476;2022-12-18T01:08:06;45.10;;;14.55;;
72920;SDS011;61064;51.654;5.476;2022-12-18T01:10:31;40.70;;;13.63;;
72920;SDS011;61064;51.654;5.476;2022-12-18T01:12:57;47.70;;;15.77;;
72920;SDS011;61064;51.654;5.476;2022-12-18T01:15:24;45.05;;;15.02;;
72920;SDS011;61064;51.654;5.476;2022-12-18T01:17:51;43.63;;;14.40;;
72920;SDS011;61064;51.654;5.476;2022-12-18T01:20:17;44.13;;;15.30;;
72920;SDS011;61064;51.654;5.476;2022-12-18T01:22:43;43.63;;;15.10;;
72920;SDS011;61064;51.654;5.476;2022-12-18T01:25:08;42.67;;;13.30;;
72920;SDS011;61064;51.654;5.476;2022-12-18T01:27:37;38.30;;;13.90;;
72920;SDS011;61064;51.654;5.476;2022-12-18T01:30:03;43.05;;;15.02;;
72920;SDS011;61064;51.654;5.476;2022-12-18T01:32:29;43.25;;;14.63;;
72920;SDS011;61064;51.654;5.476;2022-12-18T01:34:55;41.53;;;14.45;;
72920;SDS011;61064;51.654;5.476;2022-12-18T01:37:23;41.58;;;13.45;;
72920;SDS011;61064;51.654;5.476;2022-12-18T01:39:49;37.90;;;13.05;;
72920;SDS011;61064;51.654;5.476;2022-12-18T01:42:15;40.03;;;13.80;;
72920;SDS011;61064;51.654;5.476;2022-12-18T01:47:31;37.28;;;12.75;;
72920;SDS011;61064;51.654;5.476;2022-12-18T01:49:58;36.88;;;14.25;;
72920;SDS011;61064;51.654;5.476;2022-12-18T01:52:26;38.87;;;13.50;;
72920;SDS011;61064;51.654;5.476;2022-12-18T01:54:54;40.45;;;14.32;;
72920;SDS011;61064;51.654;5.476;2022-12-18T01:57:20;39.08;;;13.80;;
72920;SDS011;61064;51.654;5.476;2022-12-18T01:59:50;37.78;;;13.73;;
72920;SDS011;61064;51.654;5.476;2022-12-18T02:02:19;36.25;;;13.25;;
72920;SDS011;61064;51.654;5.476;2022-12-18T02:04:49;44.87;;;13.73;;
72920;SDS011;61064;51.654;5.476;2022-12-18T02:10:02;38.50;;;13.40;;
72920;SDS011;61064;51.654;5.476;2022-12-18T02:12:36;37.13;;;13.07;;
72920;SDS011;61064;51.654;5.476;2022-12-18T02:15:19;42.50;;;13.48;;
72920;SDS011;61064;51.654;5.476;2022-12-18T02:17:51;36.20;;;12.75;;
72920;SDS011;61064;51.654;5.476;2022-12-18T02:23:06;32.93;;;11.90;;
72920;SDS011;61064;51.654;5.476;2022-12-18T02:28:54;32.75;;;11.88;;
72920;SDS011;61064;51.654;5.476;2022-12-18T02:31:29;31.38;;;11.85;;
72920;SDS011;61064;51.654;5.476;2022-12-18T02:34:02;35.20;;;13.02;;
72920;SDS011;61064;51.654;5.476;2022-12-18T02:36:33;31.40;;;12.30;;
72920;SDS011;61064;51.654;5.476;2022-12-18T02:39:01;32.30;;;11.63;;
72920;SDS011;61064;51.654;5.476;2022-12-18T02:41:29;33.65;;;11.65;;
72920;SDS011;61064;51.654;5.476;2022-12-18T02:43:56;33.28;;;11.95;;
72920;SDS011;61064;51.654;5.476;2022-12-18T02:46:25;35.38;;;12.48;;
72920;SDS011;61064;51.654;5.476;2022-12-18T02:49:00;34.63;;;12.83;;
72920;SDS011;61064;51.654;5.476;2022-12-18T02:52:07;34.95;;;11.43;;
72920;SDS011;61064;51.654;5.476;2022-12-18T02:54:37;33.22;;;11.10;;
72920;SDS011;61064;51.654;5.476;2022-12-18T02:57:15;38.50;;;12.48;;
72920;SDS011;61064;51.654;5.476;2022-12-18T03:00:05;33.25;;;12.38;;
72920;SDS011;61064;51.654;5.476;2022-12-18T03:05:07;33.55;;;12.20;;
72920;SDS011;61064;51.654;5.476;2022-12-18T03:08:21;31.58;;;11.80;;
72920;SDS011;61064;51.654;5.476;2022-12-18T03:10:35;32.97;;;11.93;;
72920;SDS011;61064;51.654;5.476;2022-12-18T03:13:07;33.72;;;12.10;;
72920;SDS011;61064;51.654;5.476;2022-12-18T03:15:40;32.13;;;12.30;;
72920;SDS011;61064;51.654;5.476;2022-12-18T03:18:19;33.90;;;11.77;;
72920;SDS011;61064;51.654;5.476;2022-12-18T03:20:53;32.85;;;12.13;;
72920;SDS011;61064;51.654;5.476;2022-12-18T03:23:23;36.45;;;12.40;;
72920;SDS011;61064;51.654;5.476;2022-12-18T03:25:53;33.60;;;12.30;;
72920;SDS011;61064;51.654;5.476;2022-12-18T03:28:22;37.17;;;12.03;;
72920;SDS011;61064;51.654;5.476;2022-12-18T03:30:49;30.50;;;11.60;;
72920;SDS011;61064;51.654;5.476;2022-12-18T03:33:23;36.08;;;12.43;;
72920;SDS011;61064;51.654;5.476;2022-12-18T03:35:52;34.50;;;11.82;;
72920;SDS011;61064;51.654;5.476;2022-12-18T03:38:20;30.57;;;11.50;;
72920;SDS011;61064;51.654;5.476;2022-12-18T03:43:53;30.20;;;11.25;;
72920;SDS011;61064;51.654;5.476;2022-12-18T03:49:59;26.48;;;10.90;;
72920;SDS011;61064;51.654;5.476;2022-12-18T03:52:36;27.85;;;10.70;;
72920;SDS011;61064;51.654;5.476;2022-12-18T03:55:07;28.50;;;12.00;;
72920;SDS011;61064;51.654;5.476;2022-12-18T03:57:34;30.05;;;11.43;;
72920;SDS011;61064;51.654;5.476;2022-12-18T04:00:04;29.73;;;11.07;;
72920;SDS011;61064;51.654;5.476;2022-12-18T04:02:42;31.77;;;11.10;;
72920;SDS011;61064;51.654;5.476;2022-12-18T04:05:16;22.98;;;9.18;;
72920;SDS011;61064;51.654;5.476;2022-12-18T04:07:45;28.02;;;10.55;;
72920;SDS011;61064;51.654;5.476;2022-12-18T04:10:12;28.90;;;10.35;;
72920;SDS011;61064;51.654;5.476;2022-12-18T04:12:40;26.17;;;10.40;;
72920;SDS011;61064;51.654;5.476;2022-12-18T04:15:07;28.52;;;10.73;;
72920;SDS011;61064;51.654;5.476;2022-12-18T04:17:33;29.45;;;10.85;;
72920;SDS011;61064;51.654;5.476;2022-12-18T04:19:59;26.27;;;10.30;;
72920;SDS011;61064;51.654;5.476;2022-12-18T04:22:27;24.07;;;9.90;;
72920;SDS011;61064;51.654;5.476;2022-12-18T04:24:52;25.83;;;9.18;;
72920;SDS011;61064;51.654;5.476;2022-12-18T04:27:18;25.17;;;10.07;;
72920;SDS011;61064;51.654;5.476;2022-12-18T04:29:43;21.93;;;9.43;;
72920;SDS011;61064;51.654;5.476;2022-12-18T04:32:18;24.02;;;9.65;;
72920;SDS011;61064;51.654;5.476;2022-12-18T04:34:43;21.45;;;9.05;;
72920;SDS011;61064;51.654;5.476;2022-12-18T04:37:09;22.60;;;9.88;;
72920;SDS011;61064;51.654;5.476;2022-12-18T04:39:34;24.30;;;9.70;;
72920;SDS011;61064;51.654;5.476;2022-12-18T04:42:03;24.70;;;9.85;;
72920;SDS011;61064;51.654;5.476;2022-12-18T04:44:28;28.33;;;10.23;;
72920;SDS011;61064;51.654;5.476;2022-12-18T04:46:54;26.60;;;9.60;;
72920;SDS011;61064;51.654;5.476;2022-12-18T04:49:20;28.20;;;9.75;;
72920;SDS011;61064;51.654;5.476;2022-12-18T04:51:46;23.33;;;9.13;;
72920;SDS011;61064;51.654;5.476;2022-12-18T04:54:11;23.27;;;9.03;;
72920;SDS011;61064;51.654;5.476;2022-12-18T04:56:37;24.77;;;8.95;;
72920;SDS011;61064;51.654;5.476;2022-12-18T04:59:05;23.93;;;9.07;;
72920;SDS011;61064;51.654;5.476;2022-12-18T05:01:34;23.30;;;9.13;;
72920;SDS011;61064;51.654;5.476;2022-12-18T05:04:00;24.08;;;8.75;;
72920;SDS011;61064;51.654;5.476;2022-12-18T05:06:26;22.30;;;8.47;;
72920;SDS011;61064;51.654;5.476;2022-12-18T05:08:51;24.58;;;8.93;;
72920;SDS011;61064;51.654;5.476;2022-12-18T05:11:17;23.40;;;8.63;;
72920;SDS011;61064;51.654;5.476;2022-12-18T05:13:43;20.40;;;8.57;;
72920;SDS011;61064;51.654;5.476;2022-12-18T05:16:12;24.70;;;8.80;;
72920;SDS011;61064;51.654;5.476;2022-12-18T05:18:41;22.05;;;8.57;;
72920;SDS011;61064;51.654;5.476;2022-12-18T05:21:06;21.35;;;8.38;;
72920;SDS011;61064;51.654;5.476;2022-12-18T05:23:35;22.23;;;8.33;;
72920;SDS011;61064;51.654;5.476;2022-12-18T05:26:02;20.85;;;8.25;;
72920;SDS011;61064;51.654;5.476;2022-12-18T05:28:31;21.05;;;8.43;;
72920;SDS011;61064;51.654;5.476;2022-12-18T05:31:00;21.30;;;8.65;;
72920;SDS011;61064;51.654;5.476;2022-12-18T05:33:28;23.48;;;8.05;;
72920;SDS011;61064;51.654;5.476;2022-12-18T05:35:57;22.77;;;8.55;;
72920;SDS011;61064;51.654;5.476;2022-12-18T05:38:30;22.33;;;8.77;;
72920;SDS011;61064;51.654;5.476;2022-12-18T05:40:59;21.50;;;8.07;;
72920;SDS011;61064;51.654;5.476;2022-12-18T05:43:25;24.70;;;8.87;;
72920;SDS011;61064;51.654;5.476;2022-12-18T05:45:54;22.13;;;8.98;;
72920;SDS011;61064;51.654;5.476;2022-12-18T05:48:21;21.23;;;8.40;;
72920;SDS011;61064;51.654;5.476;2022-12-18T05:50:48;23.27;;;8.67;;
72920;SDS011;61064;51.654;5.476;2022-12-18T05:53:16;21.85;;;8.50;;
72920;SDS011;61064;51.654;5.476;2022-12-18T05:55:47;22.42;;;8.30;;
72920;SDS011;61064;51.654;5.476;2022-12-18T05:58:15;23.20;;;8.70;;
72920;SDS011;61064;51.654;5.476;2022-12-18T06:00:45;21.88;;;8.60;;
72920;SDS011;61064;51.654;5.476;2022-12-18T06:03:11;20.75;;;8.55;;
72920;SDS011;61064;51.654;5.476;2022-12-18T06:05:39;23.42;;;8.75;;
72920;SDS011;61064;51.654;5.476;2022-12-18T06:08:09;24.73;;;8.70;;
72920;SDS011;61064;51.654;5.476;2022-12-18T06:10:35;21.55;;;8.63;;
72920;SDS011;61064;51.654;5.476;2022-12-18T06:13:01;21.90;;;7.70;;
72920;SDS011;61064;51.654;5.476;2022-12-18T06:15:27;22.02;;;8.38;;
72920;SDS011;61064;51.654;5.476;2022-12-18T06:18:18;22.45;;;8.18;;
72920;SDS011;61064;51.654;5.476;2022-12-18T06:20:53;20.63;;;8.37;;
72920;SDS011;61064;51.654;5.476;2022-12-18T06:23:20;20.63;;;8.02;;
72920;SDS011;61064;51.654;5.476;2022-12-18T06:25:55;22.65;;;8.27;;
72920;SDS011;61064;51.654;5.476;2022-12-18T06:28:21;20.63;;;8.80;;
72920;SDS011;61064;51.654;5.476;2022-12-18T06:30:47;24.42;;;9.45;;
72920;SDS011;61064;51.654;5.476;2022-12-18T06:33:13;23.38;;;8.63;;
72920;SDS011;61064;51.654;5.476;2022-12-18T06:35:41;23.50;;;8.60;;
72920;SDS011;61064;51.654;5.476;2022-12-18T06:38:10;21.33;;;7.32;;
72920;SDS011;61064;51.654;5.476;2022-12-18T06:40:37;24.17;;;8.77;;
72920;SDS011;61064;51.654;5.476;2022-12-18T06:43:04;22.20;;;8.43;;
72920;SDS011;61064;51.654;5.476;2022-12-18T06:45:30;21.98;;;8.18;;
72920;SDS011;61064;51.654;5.476;2022-12-18T06:47:57;22.80;;;8.57;;
72920;SDS011;61064;51.654;5.476;2022-12-18T06:50:23;21.17;;;7.87;;
72920;SDS011;61064;51.654;5.476;2022-12-18T06:52:48;22.63;;;8.77;;
72920;SDS011;61064;51.654;5.476;2022-12-18T06:55:13;20.73;;;8.20;;
72920;SDS011;61064;51.654;5.476;2022-12-18T06:57:39;21.43;;;8.63;;
72920;SDS011;61064;51.654;5.476;2022-12-18T07:00:05;21.30;;;8.10;;
72920;SDS011;61064;51.654;5.476;2022-12-18T07:02:32;21.40;;;7.95;;
72920;SDS011;61064;51.654;5.476;2022-12-18T07:04:57;21.23;;;8.80;;
72920;SDS011;61064;51.654;5.476;2022-12-18T07:07:23;22.77;;;7.93;;
72920;SDS011;61064;51.654;5.476;2022-12-18T07:09:51;25.47;;;9.93;;
72920;SDS011;61064;51.654;5.476;2022-12-18T07:12:17;21.95;;;9.65;;
72920;SDS011;61064;51.654;5.476;2022-12-18T07:14:42;23.75;;;10.98;;
72920;SDS011;61064;51.654;5.476;2022-12-18T07:17:08;26.90;;;11.03;;
72920;SDS011;61064;51.654;5.476;2022-12-18T07:19:33;28.77;;;12.17;;
72920;SDS011;61064;51.654;5.476;2022-12-18T07:21:59;28.77;;;13.35;;
72920;SDS011;61064;51.654;5.476;2022-12-18T07:24:27;27.73;;;13.40;;
72920;SDS011;61064;51.654;5.476;2022-12-18T07:26:53;31.50;;;13.85;;
72920;SDS011;61064;51.654;5.476;2022-12-18T07:29:18;32.50;;;14.43;;
72920;SDS011;61064;51.654;5.476;2022-12-18T07:31:44;29.80;;;13.43;;
72920;SDS011;61064;51.654;5.476;2022-12-18T07:34:10;31.92;;;13.70;;
72920;SDS011;61064;51.654;5.476;2022-12-18T07:36:37;30.40;;;13.02;;
72920;SDS011;61064;51.654;5.476;2022-12-18T07:39:03;31.77;;;13.90;;
72920;SDS011;61064;51.654;5.476;2022-12-18T07:41:29;37.50;;;18.45;;
72920;SDS011;61064;51.654;5.476;2022-12-18T07:43:54;38.27;;;20.20;;
72920;SDS011;61064;51.654;5.476;2022-12-18T07:46:19;40.07;;;18.67;;
72920;SDS011;61064;51.654;5.476;2022-12-18T07:48:45;38.57;;;17.73;;
72920;SDS011;61064;51.654;5.476;2022-12-18T07:51:11;34.03;;;14.88;;
72920;SDS011;61064;51.654;5.476;2022-12-18T07:53:37;27.05;;;12.13;;
72920;SDS011;61064;51.654;5.476;2022-12-18T07:56:04;27.38;;;11.52;;
72920;SDS011;61064;51.654;5.476;2022-12-18T07:58:32;25.00;;;10.60;;
72920;SDS011;61064;51.654;5.476;2022-12-18T08:01:08;25.05;;;9.98;;
72920;SDS011;61064;51.654;5.476;2022-12-18T08:03:36;24.27;;;9.82;;
72920;SDS011;61064;51.654;5.476;2022-12-18T08:06:09;22.98;;;9.07;;
72920;SDS011;61064;51.654;5.476;2022-12-18T08:08:35;28.13;;;11.52;;
72920;SDS011;61064;51.654;5.476;2022-12-18T08:11:03;31.23;;;11.23;;
72920;SDS011;61064;51.654;5.476;2022-12-18T08:13:29;32.47;;;11.93;;
72920;SDS011;61064;51.654;5.476;2022-12-18T08:15:58;26.87;;;12.30;;
72920;SDS011;61064;51.654;5.476;2022-12-18T08:18:25;29.15;;;12.02;;
72920;SDS011;61064;51.654;5.476;2022-12-18T08:20:53;32.70;;;13.77;;
72920;SDS011;61064;51.654;5.476;2022-12-18T08:23:19;36.20;;;14.75;;
72920;SDS011;61064;51.654;5.476;2022-12-18T08:25:45;33.92;;;14.43;;
72920;SDS011;61064;51.654;5.476;2022-12-18T08:28:10;36.17;;;15.60;;
72920;SDS011;61064;51.654;5.476;2022-12-18T08:30:36;35.47;;;14.37;;
72920;SDS011;61064;51.654;5.476;2022-12-18T08:33:01;34.65;;;14.85;;
72920;SDS011;61064;51.654;5.476;2022-12-18T08:35:27;33.33;;;15.47;;
72920;SDS011;61064;51.654;5.476;2022-12-18T08:37:53;34.60;;;15.70;;
72920;SDS011;61064;51.654;5.476;2022-12-18T08:40:21;34.77;;;14.00;;
72920;SDS011;61064;51.654;5.476;2022-12-18T08:42:47;30.55;;;12.48;;
72920;SDS011;61064;51.654;5.476;2022-12-18T08:45:34;27.33;;;12.18;;
72920;SDS011;61064;51.654;5.476;2022-12-18T08:47:59;31.25;;;12.45;;
72920;SDS011;61064;51.654;5.476;2022-12-18T08:50:24;33.47;;;12.98;;
72920;SDS011;61064;51.654;5.476;2022-12-18T08:52:50;30.27;;;12.53;;
72920;SDS011;61064;51.654;5.476;2022-12-18T08:55:15;25.97;;;10.70;;
72920;SDS011;61064;51.654;5.476;2022-12-18T08:57:41;25.57;;;10.17;;
72920;SDS011;61064;51.654;5.476;2022-12-18T09:00:12;25.80;;;10.30;;
72920;SDS011;61064;51.654;5.476;2022-12-18T09:02:40;20.13;;;8.52;;
72920;SDS011;61064;51.654;5.476;2022-12-18T09:05:06;20.17;;;8.23;;
72920;SDS011;61064;51.654;5.476;2022-12-18T09:07:31;22.83;;;9.00;;
72920;SDS011;61064;51.654;5.476;2022-12-18T09:09:57;23.70;;;9.23;;
72920;SDS011;61064;51.654;5.476;2022-12-18T09:12:25;22.35;;;9.38;;
72920;SDS011;61064;51.654;5.476;2022-12-18T09:14:50;25.27;;;11.07;;
72920;SDS011;61064;51.654;5.476;2022-12-18T09:17:15;26.87;;;11.63;;
72920;SDS011;61064;51.654;5.476;2022-12-18T09:19:41;27.23;;;11.90;;
72920;SDS011;61064;51.654;5.476;2022-12-18T09:22:06;25.80;;;10.87;;
72920;SDS011;61064;51.654;5.476;2022-12-18T09:24:32;22.90;;;9.30;;
72920;SDS011;61064;51.654;5.476;2022-12-18T09:26:57;22.67;;;8.65;;
72920;SDS011;61064;51.654;5.476;2022-12-18T09:29:22;23.20;;;9.20;;
72920;SDS011;61064;51.654;5.476;2022-12-18T09:31:51;21.00;;;8.57;;
72920;SDS011;61064;51.654;5.476;2022-12-18T09:34:16;24.70;;;9.43;;
72920;SDS011;61064;51.654;5.476;2022-12-18T09:36:42;21.03;;;8.50;;
72920;SDS011;61064;51.654;5.476;2022-12-18T09:39:07;24.23;;;8.32;;
72920;SDS011;61064;51.654;5.476;2022-12-18T09:44:50;20.83;;;8.55;;
72920;SDS011;61064;51.654;5.476;2022-12-18T09:49:41;22.30;;;8.82;;
72920;SDS011;61064;51.654;5.476;2022-12-18T09:52:14;22.38;;;8.88;;
72920;SDS011;61064;51.654;5.476;2022-12-18T09:54:47;20.35;;;8.95;;
72920;SDS011;61064;51.654;5.476;2022-12-18T09:57:17;22.75;;;8.80;;
72920;SDS011;61064;51.654;5.476;2022-12-18T09:59:50;21.33;;;8.20;;
72920;SDS011;61064;51.654;5.476;2022-12-18T10:02:20;21.42;;;9.13;;
72920;SDS011;61064;51.654;5.476;2022-12-18T10:05:10;25.92;;;9.10;;
72920;SDS011;61064;51.654;5.476;2022-12-18T10:13:42;22.65;;;9.40;;
72920;SDS011;61064;51.654;5.476;2022-12-18T10:15:58;23.52;;;9.48;;
72920;SDS011;61064;51.654;5.476;2022-12-18T10:18:51;22.50;;;9.05;;
72920;SDS011;61064;51.654;5.476;2022-12-18T10:21:26;26.60;;;9.80;;
72920;SDS011;61064;51.654;5.476;2022-12-18T10:26:44;20.58;;;9.00;;
72920;SDS011;61064;51.654;5.476;2022-12-18T10:29:13;22.35;;;9.00;;
72920;SDS011;61064;51.654;5.476;2022-12-18T10:31:40;24.45;;;9.63;;
72920;SDS011;61064;51.654;5.476;2022-12-18T10:34:09;20.43;;;8.83;;
72920;SDS011;61064;51.654;5.476;2022-12-18T10:36:40;23.88;;;9.02;;
72920;SDS011;61064;51.654;5.476;2022-12-18T10:39:13;23.67;;;9.50;;
72920;SDS011;61064;51.654;5.476;2022-12-18T10:41:43;26.00;;;9.07;;
72920;SDS011;61064;51.654;5.476;2022-12-18T10:44:11;23.42;;;9.25;;
72920;SDS011;61064;51.654;5.476;2022-12-18T10:46:48;23.97;;;8.93;;
72920;SDS011;61064;51.654;5.476;2022-12-18T10:49:28;23.52;;;9.63;;
72920;SDS011;61064;51.654;5.476;2022-12-18T10:54:49;24.70;;;9.27;;
72920;SDS011;61064;51.654;5.476;2022-12-18T10:57:37;19.50;;;7.70;;
72920;SDS011;61064;51.654;5.476;2022-12-18T11:00:22;23.37;;;8.53;;
72920;SDS011;61064;51.654;5.476;2022-12-18T11:02:53;23.52;;;9.77;;
72920;SDS011;61064;51.654;5.476;2022-12-18T11:07:48;21.05;;;9.05;;
72920;SDS011;61064;51.654;5.476;2022-12-18T11:10:19;21.80;;;9.48;;
72920;SDS011;61064;51.654;5.476;2022-12-18T11:12:45;21.60;;;8.57;;
72920;SDS011;61064;51.654;5.476;2022-12-18T11:15:16;27.35;;;10.15;;
72920;SDS011;61064;51.654;5.476;2022-12-18T11:17:46;23.77;;;9.75;;
72920;SDS011;61064;51.654;5.476;2022-12-18T11:20:31;21.40;;;9.32;;
72920;SDS011;61064;51.654;5.476;2022-12-18T11:23:05;25.65;;;9.65;;
72920;SDS011;61064;51.654;5.476;2022-12-18T11:25:38;19.60;;;8.40;;
72920;SDS011;61064;51.654;5.476;2022-12-18T11:28:05;24.30;;;9.23;;
72920;SDS011;61064;51.654;5.476;2022-12-18T11:30:51;20.13;;;9.15;;
72920;SDS011;61064;51.654;5.476;2022-12-18T11:33:44;22.30;;;8.35;;
72920;SDS011;61064;51.654;5.476;2022-12-18T11:36:16;24.00;;;8.77;;
72920;SDS011;61064;51.654;5.476;2022-12-18T11:38:42;21.80;;;8.73;;
72920;SDS011;61064;51.654;5.476;2022-12-18T11:44:14;22.88;;;9.45;;
72920;SDS011;61064;51.654;5.476;2022-12-18T11:46:51;25.75;;;9.75;;
72920;SDS011;61064;51.654;5.476;2022-12-18T11:49:34;19.77;;;7.65;;
72920;SDS011;61064;51.654;5.476;2022-12-18T11:54:40;26.48;;;10.00;;
72920;SDS011;61064;51.654;5.476;2022-12-18T11:59:56;25.70;;;9.65;;
72920;SDS011;61064;51.654;5.476;2022-12-18T12:09:07;27.85;;;10.10;;
72920;SDS011;61064;51.654;5.476;2022-12-18T12:19:39;20.25;;;8.63;;
72920;SDS011;61064;51.654;5.476;2022-12-18T12:39:13;19.70;;;9.07;;
72920;SDS011;61064;51.654;5.476;2022-12-18T12:41:48;21.45;;;8.40;;
72920;SDS011;61064;51.654;5.476;2022-12-18T12:44:34;23.15;;;9.70;;
72920;SDS011;61064;51.654;5.476;2022-12-18T12:47:22;26.10;;;9.82;;
72920;SDS011;61064;51.654;5.476;2022-12-18T12:49:54;24.95;;;10.20;;
72920;SDS011;61064;51.654;5.476;2022-12-18T12:52:34;21.60;;;8.55;;
72920;SDS011;61064;51.654;5.476;2022-12-18T12:55:05;17.33;;;7.82;;
72920;SDS011;61064;51.654;5.476;2022-12-18T12:57:48;20.55;;;8.52;;
72920;SDS011;61064;51.654;5.476;2022-12-18T13:00:56;19.27;;;8.35;;
72920;SDS011;61064;51.654;5.476;2022-12-18T13:06:11;19.35;;;8.38;;
72920;SDS011;61064;51.654;5.476;2022-12-18T13:08:56;20.35;;;8.60;;
72920;SDS011;61064;51.654;5.476;2022-12-18T13:11:34;20.88;;;8.98;;
72920;SDS011;61064;51.654;5.476;2022-12-18T13:14:31;20.98;;;9.18;;
72920;SDS011;61064;51.654;5.476;2022-12-18T13:22:34;22.37;;;9.70;;
72920;SDS011;61064;51.654;5.476;2022-12-18T13:38:32;22.42;;;9.13;;
72920;SDS011;61064;51.654;5.476;2022-12-18T13:43:46;22.88;;;9.45;;
72920;SDS011;61064;51.654;5.476;2022-12-18T13:46:46;21.50;;;9.25;;
72920;SDS011;61064;51.654;5.476;2022-12-18T13:51:39;21.73;;;9.18;;
72920;SDS011;61064;51.654;5.476;2022-12-18T13:56:58;24.70;;;10.02;;
72920;SDS011;61064;51.654;5.476;2022-12-18T13:59:39;21.48;;;9.02;;
72920;SDS011;61064;51.654;5.476;2022-12-18T14:02:17;26.30;;;9.77;;
72920;SDS011;61064;51.654;5.476;2022-12-18T14:04:46;22.77;;;9.50;;
72920;SDS011;61064;51.654;5.476;2022-12-18T14:07:23;22.98;;;9.73;;
72920;SDS011;61064;51.654;5.476;2022-12-18T14:10:00;21.52;;;9.65;;
72920;SDS011;61064;51.654;5.476;2022-12-18T14:12:36;22.40;;;8.98;;
72920;SDS011;61064;51.654;5.476;2022-12-18T14:15:23;21.90;;;9.40;;
72920;SDS011;61064;51.654;5.476;2022-12-18T14:18:00;24.90;;;9.77;;
72920;SDS011;61064;51.654;5.476;2022-12-18T14:20:43;23.45;;;9.52;;
72920;SDS011;61064;51.654;5.476;2022-12-18T14:25:52;21.83;;;9.53;;
72920;SDS011;61064;51.654;5.476;2022-12-18T14:28:17;22.10;;;9.40;;
72920;SDS011;61064;51.654;5.476;2022-12-18T14:30:44;24.13;;;9.20;;
72920;SDS011;61064;51.654;5.476;2022-12-18T14:33:12;23.20;;;9.52;;
72920;SDS011;61064;51.654;5.476;2022-12-18T14:35:43;23.67;;;9.55;;
72920;SDS011;61064;51.654;5.476;2022-12-18T14:38:21;24.83;;;10.50;;
72920;SDS011;61064;51.654;5.476;2022-12-18T14:40:55;24.55;;;9.35;;
72920;SDS011;61064;51.654;5.476;2022-12-18T14:43:39;23.60;;;10.02;;
72920;SDS011;61064;51.654;5.476;2022-12-18T14:46:06;22.20;;;10.13;;
72920;SDS011;61064;51.654;5.476;2022-12-18T14:48:55;21.75;;;9.35;;
72920;SDS011;61064;51.654;5.476;2022-12-18T14:51:31;23.20;;;10.13;;
72920;SDS011;61064;51.654;5.476;2022-12-18T14:54:02;26.35;;;10.02;;
72920;SDS011;61064;51.654;5.476;2022-12-18T14:56:43;23.90;;;10.13;;
72920;SDS011;61064;51.654;5.476;2022-12-18T14:59:21;20.77;;;9.75;;
72920;SDS011;61064;51.654;5.476;2022-12-18T15:04:33;26.98;;;10.52;;
72920;SDS011;61064;51.654;5.476;2022-12-18T15:07:07;23.02;;;9.65;;
72920;SDS011;61064;51.654;5.476;2022-12-18T15:10:01;22.77;;;9.73;;
72920;SDS011;61064;51.654;5.476;2022-12-18T15:12:36;25.58;;;10.85;;
72920;SDS011;61064;51.654;5.476;2022-12-18T15:20:53;22.77;;;9.88;;
72920;SDS011;61064;51.654;5.476;2022-12-18T15:23:25;26.73;;;11.23;;
72920;SDS011;61064;51.654;5.476;2022-12-18T15:26:06;25.13;;;10.65;;
72920;SDS011;61064;51.654;5.476;2022-12-18T15:31:23;27.00;;;10.93;;
72920;SDS011;61064;51.654;5.476;2022-12-18T15:36:32;25.60;;;10.35;;
72920;SDS011;61064;51.654;5.476;2022-12-18T15:39:01;28.33;;;12.27;;
72920;SDS011;61064;51.654;5.476;2022-12-18T15:41:27;26.27;;;10.38;;
72920;SDS011;61064;51.654;5.476;2022-12-18T15:43:53;25.92;;;9.50;;
72920;SDS011;61064;51.654;5.476;2022-12-18T15:46:20;27.03;;;10.53;;
72920;SDS011;61064;51.654;5.476;2022-12-18T15:48:48;25.75;;;10.20;;
72920;SDS011;61064;51.654;5.476;2022-12-18T15:51:18;24.63;;;9.82;;
72920;SDS011;61064;51.654;5.476;2022-12-18T15:53:56;25.50;;;10.38;;
72920;SDS011;61064;51.654;5.476;2022-12-18T15:56:24;26.75;;;10.48;;
72920;SDS011;61064;51.654;5.476;2022-12-18T15:59:18;26.63;;;10.05;;
72920;SDS011;61064;51.654;5.476;2022-12-18T16:01:46;24.23;;;10.52;;
72920;SDS011;61064;51.654;5.476;2022-12-18T16:04:13;23.15;;;10.13;;
72920;SDS011;61064;51.654;5.476;2022-12-18T16:06:41;28.70;;;10.98;;
72920;SDS011;61064;51.654;5.476;2022-12-18T16:09:09;23.43;;;10.10;;
72920;SDS011;61064;51.654;5.476;2022-12-18T16:11:35;25.08;;;10.25;;
72920;SDS011;61064;51.654;5.476;2022-12-18T16:17:01;25.83;;;10.20;;
72920;SDS011;61064;51.654;5.476;2022-12-18T16:19:28;22.13;;;9.33;;
72920;SDS011;61064;51.654;5.476;2022-12-18T16:21:57;21.40;;;9.05;;
72920;SDS011;61064;51.654;5.476;2022-12-18T16:24:27;25.15;;;10.20;;
72920;SDS011;61064;51.654;5.476;2022-12-18T16:26:56;22.33;;;8.93;;
72920;SDS011;61064;51.654;5.476;2022-12-18T16:29:24;24.52;;;9.93;;
72920;SDS011;61064;51.654;5.476;2022-12-18T16:31:52;22.27;;;9.40;;
72920;SDS011;61064;51.654;5.476;2022-12-18T16:34:22;22.58;;;9.70;;
72920;SDS011;61064;51.654;5.476;2022-12-18T16:36:53;24.90;;;10.13;;
72920;SDS011;61064;51.654;5.476;2022-12-18T16:39:19;22.42;;;9.38;;
72920;SDS011;61064;51.654;5.476;2022-12-18T16:41:45;23.30;;;9.83;;
72920;SDS011;61064;51.654;5.476;2022-12-18T16:44:11;25.42;;;9.25;;
72920;SDS011;61064;51.654;5.476;2022-12-18T16:46:37;22.03;;;9.27;;
72920;SDS011;61064;51.654;5.476;2022-12-18T16:49:03;24.90;;;9.52;;
72920;SDS011;61064;51.654;5.476;2022-12-18T16:51:28;23.03;;;9.33;;
72920;SDS011;61064;51.654;5.476;2022-12-18T16:53:54;21.02;;;9.27;;
72920;SDS011;61064;51.654;5.476;2022-12-18T16:56:23;24.23;;;9.85;;